Owensville, IN

2:14 AM CST on February 28, 2015 (GMT -0600)
Rural Princeton | Change Station
CLOSE
Current Station
Personal Weather Station
Location: Princeton, IN
Elevation: 436 ft
Nearby Weather Stations

Elev 436 ft 38.30 °N, 87.59 °W | Updated 3 minutes ago

Clear
Clear
17.3 °F
Feels Like 11 °F
N
4.0
Wind Variable Wind from ESE
Gusts 4.0 mph

Today
High -- | Low -- °F
--% Chance of Precip.
Yesterday
High -- | Low -- °F
Precip. -- in
6:24 AM 5:42 PM
Waxing Gibbous, 75% visible
Pressure 30.68 in
Visibility 10.0 miles
Clouds Mostly Cloudy 8000 ft
Windchill 11 °F
Dew Point 9 °F
Humidity 69%
Rainfall 0.00 in
Snow Depth Not available.
UV 0 out of 12
Pollen .40 out of 12
Air Quality Not available.
Flu Activity Not available.
METAR KEVV 280754Z AUTO 02006KT 10SM BKN080 M07/M15 A3066 RMK AO2 SLP388 T10721150

More Conditions Fewer Conditions

Pressure 30.68 in
Visibility 10.0 miles
Clouds Mostly Cloudy 8000 ft
Windchill 11 °F
Dew Point 9 °F
Humidity 69%
Rainfall 0.00 in
Snow Depth Not available.
UV 0 out of 12
Pollen .40 out of 12
Air Quality Not available.
Flu Activity Not available.
METAR KEVV 280754Z AUTO 02006KT 10SM BKN080 M07/M15 A3066 RMK AO2 SLP388 T10721150

More Conditions Fewer Conditions

10-Day Weather Forecast

Almanac

Astronomy

Feb. 28, 2015 Rise Set
Actual Time
Civil Twilight
Nautical Twilight
Astronomical Twilight
Moon
Length of Visible Light
Length of Day
Tomorrow will be .
, % of the Moon is Illuminated

Today's Extremes

State Highs State Lows

Community

WunderPhotos

Upload Photos

1,800,984 photos uploaded!

WunderBlogs® & News

Nearby

Air Quality

  Air Quality AQ Index Pollutant
Not available.

Snow Depth

Station Depth Elevation

Earthquake Activity

City Distance Mag. Time & Date
Minimum magnitude displayed is 2.5.

Coastal Water Temperatures

Place Temperature

Nearby Weather Stations